createdAt,value
2018-02-07T00:00:22.107Z,0.37
2018-02-07T00:02:57.137Z,0.44
2018-02-07T00:05:32.011Z,0.52
2018-02-07T00:08:07.018Z,0.53
2018-02-07T00:10:42.081Z,0.48
2018-02-07T00:13:17.193Z,0.42
2018-02-07T00:15:52.262Z,0.35
2018-02-07T00:18:26.990Z,0.26
2018-02-07T00:21:02.835Z,0.22
2018-02-07T00:23:38.046Z,0.18
2018-02-07T00:26:13.046Z,0.15
2018-02-07T00:28:48.457Z,0.12
2018-02-07T00:31:23.318Z,0.12
2018-02-07T00:33:58.429Z,0.11
2018-02-07T00:36:33.235Z,0.08
2018-02-07T00:39:08.084Z,0.05
2018-02-07T00:41:43.177Z,0.01
2018-02-07T00:44:18.120Z,-0.06
2018-02-07T00:46:53.170Z,-0.11
2018-02-07T00:49:27.550Z,-0.17
2018-02-07T00:52:02.533Z,-0.20
2018-02-07T00:54:38.081Z,-0.21
2018-02-07T00:57:12.584Z,-0.18
2018-02-07T00:59:47.514Z,-0.06
2018-02-07T01:02:22.582Z,-0.06
2018-02-07T01:04:57.444Z,-0.07
2018-02-07T01:07:32.294Z,0.02
2018-02-07T01:10:07.652Z,0.03
2018-02-07T01:12:43.170Z,-0.04
2018-02-07T01:15:18.305Z,-0.10
2018-02-07T01:17:53.322Z,-0.14
2018-02-07T01:20:28.237Z,-0.25
2018-02-07T01:23:03.457Z,-0.32
2018-02-07T01:25:38.308Z,-0.37
2018-02-07T01:28:13.201Z,-0.36
2018-02-07T01:30:48.461Z,-0.34
2018-02-07T01:33:23.354Z,-0.28
2018-02-07T01:35:58.337Z,-0.22
2018-02-07T01:38:33.336Z,-0.20
2018-02-07T01:41:08.285Z,-0.19
2018-02-07T01:43:43.254Z,-0.20
2018-02-07T01:46:18.391Z,-0.24
2018-02-07T01:48:53.626Z,-0.34
2018-02-07T01:51:28.405Z,-0.44
2018-02-07T01:54:03.405Z,-0.50
2018-02-07T01:56:38.593Z,-0.56
2018-02-07T01:59:13.577Z,-0.59
2018-02-07T02:01:48.618Z,-0.63
2018-02-07T02:25:23.161Z,-1.08
2018-02-07T02:27:58.422Z,-1.05
2018-02-07T02:30:33.569Z,-1.07
2018-02-07T02:33:08.410Z,-1.06
2018-02-07T02:49:06.514Z,-1.00
2018-02-07T02:51:41.457Z,-1.03
2018-02-07T02:54:16.514Z,-1.03
2018-02-07T02:56:51.517Z,-1.03
2018-02-07T02:59:26.674Z,-1.06
2018-02-07T03:02:02.003Z,-1.13
2018-02-07T03:04:37.469Z,-1.18
2018-02-07T03:07:12.733Z,-1.21
2018-02-07T03:09:47.963Z,-1.31
2018-02-07T03:12:22.672Z,-1.24
2018-02-07T03:14:57.408Z,-1.25
2018-02-07T03:17:32.594Z,-1.27
2018-02-07T03:20:07.728Z,-1.36
2018-02-07T03:22:42.775Z,-1.42
2018-02-07T03:25:17.906Z,-1.46
2018-02-07T03:27:53.030Z,-1.45
2018-02-07T03:30:28.612Z,-1.41
2018-02-07T03:33:03.882Z,-1.35
2018-02-07T03:35:39.142Z,-1.34
2018-02-07T03:38:14.509Z,-1.33
2018-02-07T03:40:49.965Z,-1.26
2018-02-07T03:43:25.558Z,-1.20
2018-02-07T03:46:00.261Z,-1.19
2018-02-07T03:48:35.582Z,-1.22
2018-02-07T03:51:10.722Z,-1.26
2018-02-07T03:53:47.094Z,-1.31
2018-02-07T03:56:21.927Z,-1.34
2018-02-07T03:58:56.629Z,-1.31
2018-02-07T04:01:31.617Z,-1.33
2018-02-07T04:04:06.702Z,-1.38
2018-02-07T04:06:41.958Z,-1.40
2018-02-07T04:09:16.758Z,-1.39
2018-02-07T04:11:51.950Z,-1.35
2018-02-07T04:14:27.103Z,-1.33
2018-02-07T04:17:02.801Z,-1.31
2018-02-07T04:19:37.738Z,-1.34
2018-02-07T04:22:12.789Z,-1.35
2018-02-07T04:24:47.748Z,-1.38
2018-02-07T04:27:22.624Z,-1.40
2018-02-07T04:29:58.084Z,-1.42
2018-02-07T04:32:33.016Z,-1.45
2018-02-07T04:35:07.885Z,-1.53
2018-02-07T04:37:42.578Z,-1.64
2018-02-07T04:40:17.783Z,-1.74
2018-02-07T04:42:53.076Z,-1.65
2018-02-07T04:45:28.208Z,-1.62
2018-02-07T04:48:03.330Z,-1.58
2018-02-07T04:50:37.976Z,-1.60
2018-02-07T04:53:12.789Z,-1.63
2018-02-07T04:55:47.736Z,-1.67
2018-02-07T04:58:22.793Z,-1.73
2018-02-07T05:00:58.314Z,-1.86
2018-02-07T05:03:33.243Z,-2.17
2018-02-07T05:06:08.895Z,-2.08
2018-02-07T05:08:43.969Z,-2.13
2018-02-07T05:11:19.302Z,-2.14
2018-02-07T05:13:53.990Z,-2.16
2018-02-07T05:16:28.955Z,-2.13
2018-02-07T05:19:04.137Z,-2.11
2018-02-07T05:21:39.012Z,-2.17
2018-02-07T05:24:13.994Z,-2.17
2018-02-07T05:26:48.995Z,-2.15
2018-02-07T05:29:24.270Z,-2.08
2018-02-07T05:31:59.986Z,-2.07
2018-02-07T05:34:34.919Z,-2.12
2018-02-07T05:37:09.993Z,-2.18
2018-02-07T05:39:45.138Z,-2.21
2018-02-07T05:42:20.108Z,-2.28
2018-02-07T05:44:54.825Z,-2.33
2018-02-07T05:47:29.935Z,-2.33
2018-02-07T05:50:05.090Z,-2.25
2018-02-07T05:52:40.299Z,-2.24
2018-02-07T05:55:15.210Z,-2.22
2018-02-07T05:57:50.530Z,-2.17
2018-02-07T06:00:25.892Z,-2.18
2018-02-07T06:03:01.149Z,-2.20
2018-02-07T06:05:36.106Z,-2.22
2018-02-07T06:08:10.570Z,-2.19
2018-02-07T06:10:47.055Z,-2.20
2018-02-07T06:13:22.099Z,-2.15
2018-02-07T06:15:57.105Z,-2.13
2018-02-07T06:18:32.448Z,-2.11
2018-02-07T06:21:07.091Z,-2.10
2018-02-07T06:23:41.490Z,-2.11
2018-02-07T06:26:16.458Z,-2.13
2018-02-07T06:28:51.478Z,-2.17
2018-02-07T06:31:26.989Z,-2.14
2018-02-07T06:34:02.466Z,-2.11
2018-02-07T06:36:37.453Z,-2.14
2018-02-07T06:39:12.229Z,-2.13
2018-02-07T06:41:47.522Z,-2.12
2018-02-07T06:44:22.212Z,-2.14
2018-02-07T06:46:57.204Z,-2.17
2018-02-07T06:49:32.265Z,-2.15
2018-02-07T06:52:07.358Z,-2.15
2018-02-07T06:54:42.549Z,-2.15
2018-02-07T06:57:18.217Z,-2.20
2018-02-07T06:59:53.326Z,-2.21
2018-02-07T07:02:28.242Z,-2.20
2018-02-07T07:05:03.524Z,-2.19
2018-02-07T07:07:38.316Z,-2.15
2018-02-07T07:10:13.218Z,-2.12
2018-02-07T07:12:48.702Z,-2.11
2018-02-07T07:15:23.306Z,-2.08
2018-02-07T07:17:58.605Z,-2.06
2018-02-07T07:20:33.261Z,-2.07
2018-02-07T07:23:08.066Z,-2.10
2018-02-07T07:25:43.209Z,-2.08
2018-02-07T07:28:18.127Z,-2.11
2018-02-07T07:30:52.934Z,-2.17
2018-02-07T07:33:27.611Z,-2.22
2018-02-07T07:36:02.697Z,-2.27
2018-02-07T07:38:37.689Z,-2.30
2018-02-07T07:41:12.673Z,-2.35
2018-02-07T07:43:47.751Z,-2.36
2018-02-07T07:46:22.482Z,-2.34
2018-02-07T07:48:57.609Z,-2.33
2018-02-07T07:51:32.609Z,-2.31
2018-02-07T07:54:07.810Z,-2.25
2018-02-07T07:56:43.349Z,-2.13
2018-02-07T07:59:18.361Z,-1.96
2018-02-07T08:01:53.703Z,-1.81
2018-02-07T08:04:29.046Z,-1.66
2018-02-07T08:07:04.291Z,-1.50
2018-02-07T08:09:39.397Z,-1.33
2018-02-07T08:12:14.564Z,-1.15
2018-02-07T08:14:49.695Z,-0.95
2018-02-07T08:17:24.505Z,-0.82
2018-02-07T08:19:59.694Z,-0.71
2018-02-07T08:22:34.435Z,-0.61
2018-02-07T08:25:09.545Z,-0.52
2018-02-07T08:27:44.477Z,-0.40
2018-02-07T08:30:19.629Z,-0.29
2018-02-07T08:32:54.774Z,-0.20
2018-02-07T08:35:29.682Z,-0.13
2018-02-07T08:38:04.705Z,-0.01
2018-02-07T08:40:39.494Z,0.09
2018-02-07T08:43:14.695Z,0.21
2018-02-07T08:45:49.701Z,0.35
2018-02-07T08:48:24.835Z,0.43
2018-02-07T08:50:59.990Z,0.55
2018-02-07T08:53:35.115Z,0.72
2018-02-07T08:56:10.409Z,0.93
2018-02-07T08:58:45.568Z,1.12
2018-02-07T09:01:20.597Z,1.29
2018-02-07T09:03:55.602Z,1.43
2018-02-07T09:06:30.117Z,1.61
2018-02-07T09:09:04.958Z,1.79
2018-02-07T09:11:40.094Z,1.96
2018-02-07T09:14:15.597Z,2.13
2018-02-07T09:16:50.842Z,2.24
2018-02-07T09:19:25.601Z,2.34
2018-02-07T09:22:01.153Z,2.46
2018-02-07T09:24:36.058Z,2.63
2018-02-07T09:27:11.089Z,2.83
2018-02-07T09:29:46.135Z,3.07
2018-02-07T09:32:21.578Z,3.32
2018-02-07T09:34:56.982Z,3.54
2018-02-07T09:37:31.853Z,3.79
2018-02-07T09:40:06.818Z,3.91
2018-02-07T09:42:41.441Z,4.06
2018-02-07T09:45:16.849Z,4.26
2018-02-07T09:47:51.858Z,4.44
2018-02-07T09:50:26.706Z,4.62
2018-02-07T09:53:01.867Z,4.74
2018-02-07T09:55:36.879Z,4.86
2018-02-07T09:58:11.978Z,5.02
2018-02-07T10:00:48.006Z,5.26
2018-02-07T10:03:23.031Z,5.46
2018-02-07T10:05:58.002Z,5.64
2018-02-07T10:08:32.789Z,5.77
2018-02-07T10:11:07.635Z,5.96
2018-02-07T10:13:42.674Z,6.12
2018-02-07T10:16:17.198Z,6.13
2018-02-07T10:18:52.818Z,6.16
2018-02-07T10:21:27.846Z,6.32
2018-02-07T10:24:03.039Z,6.46
2018-02-07T10:26:38.058Z,6.14
2018-02-07T10:29:12.879Z,6.23
2018-02-07T10:31:48.230Z,6.35
2018-02-07T10:34:23.096Z,6.51
2018-02-07T10:36:58.007Z,6.69
2018-02-07T10:39:33.330Z,6.47
2018-02-07T10:42:08.803Z,6.56
2018-02-07T10:44:43.823Z,6.81
2018-02-07T10:47:19.059Z,7.12
2018-02-07T10:49:54.115Z,7.17
2018-02-07T10:52:29.331Z,7.07
2018-02-07T10:55:04.380Z,7.01
2018-02-07T10:57:39.205Z,7.10
2018-02-07T11:00:14.258Z,7.36
2018-02-07T11:02:49.351Z,7.59
2018-02-07T11:05:24.216Z,7.78
2018-02-07T11:07:59.523Z,7.46
2018-02-07T11:10:34.195Z,7.09
2018-02-07T11:13:08.641Z,7.19
2018-02-07T11:15:43.934Z,7.49
2018-02-07T11:18:18.979Z,7.60
2018-02-07T11:20:54.130Z,7.52
2018-02-07T11:23:28.734Z,7.59
2018-02-07T11:26:04.104Z,7.70
2018-02-07T11:28:38.895Z,7.65
2018-02-07T11:31:14.022Z,7.65
2018-02-07T11:33:49.310Z,7.92
2018-02-07T11:36:24.134Z,8.19
2018-02-07T11:38:59.473Z,8.51
2018-02-07T11:41:34.258Z,8.39
2018-02-07T11:44:09.090Z,8.15
2018-02-07T11:46:44.342Z,8.25
2018-02-07T11:49:19.434Z,8.23
2018-02-07T11:51:54.183Z,7.79
2018-02-07T11:54:29.493Z,7.40
2018-02-07T11:57:04.349Z,7.43
2018-02-07T11:59:39.959Z,7.37
2018-02-07T12:02:14.845Z,7.31
2018-02-07T12:04:50.122Z,7.17
2018-02-07T12:07:24.219Z,7.00
2018-02-07T12:09:59.555Z,6.65
2018-02-07T12:12:34.990Z,6.69
2018-02-07T12:15:10.089Z,7.20
2018-02-07T12:17:45.082Z,7.63
2018-02-07T12:20:20.164Z,7.80
2018-02-07T12:22:54.571Z,7.82
2018-02-07T12:25:29.998Z,8.05
2018-02-07T12:28:05.382Z,8.42
2018-02-07T12:30:40.310Z,8.66
2018-02-07T12:33:15.559Z,8.91
2018-02-07T12:35:50.467Z,8.80
2018-02-07T12:38:25.141Z,8.01
2018-02-07T12:41:00.382Z,7.97
2018-02-07T12:43:35.921Z,8.27
2018-02-07T12:46:10.611Z,8.56
2018-02-07T12:48:45.206Z,8.74
2018-02-07T12:51:20.101Z,8.87
2018-02-07T12:53:55.518Z,8.98
2018-02-07T12:56:30.274Z,8.93
2018-02-07T12:59:06.443Z,9.00
2018-02-07T13:01:41.213Z,9.14
2018-02-07T13:04:15.589Z,9.29
2018-02-07T13:06:50.588Z,9.47
2018-02-07T13:09:25.643Z,9.56
2018-02-07T13:12:00.574Z,9.60
2018-02-07T13:14:36.091Z,9.70
2018-02-07T13:17:11.258Z,9.78
2018-02-07T13:19:46.257Z,9.86
2018-02-07T13:22:20.810Z,9.96
2018-02-07T13:24:56.161Z,9.87
2018-02-07T13:27:31.326Z,9.88
2018-02-07T13:30:06.877Z,9.93
2018-02-07T13:32:41.549Z,9.96
2018-02-07T13:35:17.202Z,9.79
2018-02-07T13:37:52.442Z,9.62
2018-02-07T13:40:27.350Z,9.57
2018-02-07T13:43:02.421Z,9.54
2018-02-07T13:45:37.452Z,9.59
2018-02-07T13:48:12.782Z,9.73
2018-02-07T13:50:48.710Z,9.85
2018-02-07T13:53:23.898Z,9.93
2018-02-07T13:55:59.285Z,10.02
2018-02-07T13:58:34.502Z,10.06
2018-02-07T14:01:09.403Z,10.05
2018-02-07T14:03:44.222Z,10.03
2018-02-07T14:06:19.593Z,10.04
2018-02-07T14:08:54.723Z,10.12
2018-02-07T14:11:30.392Z,10.10
2018-02-07T14:14:05.583Z,9.92
2018-02-07T14:16:40.539Z,9.83
2018-02-07T14:19:15.446Z,9.77
2018-02-07T14:21:50.446Z,9.61
2018-02-07T14:24:25.350Z,9.53
2018-02-07T14:26:59.884Z,9.40
2018-02-07T14:29:35.249Z,9.32
2018-02-07T14:32:10.361Z,9.19
2018-02-07T14:34:45.574Z,9.08
2018-02-07T14:37:20.570Z,9.00
2018-02-07T14:39:55.546Z,8.87
2018-02-07T14:42:30.703Z,8.73
2018-02-07T14:45:05.719Z,8.54
2018-02-07T14:47:40.691Z,8.36
2018-02-07T14:50:15.816Z,8.31
2018-02-07T14:52:50.745Z,8.05
2018-02-07T14:55:25.954Z,7.88
2018-02-07T14:58:01.402Z,7.88
2018-02-07T15:00:36.547Z,7.87
2018-02-07T15:03:11.689Z,7.95
2018-02-07T15:05:46.690Z,7.91
2018-02-07T15:08:21.798Z,7.92
2018-02-07T15:10:56.886Z,7.83
2018-02-07T15:13:31.997Z,7.72
2018-02-07T15:16:07.139Z,7.62
2018-02-07T15:18:41.717Z,7.56
2018-02-07T15:21:16.519Z,7.50
2018-02-07T15:23:52.191Z,7.45
2018-02-07T15:26:26.736Z,7.36
2018-02-07T15:29:01.843Z,7.20
2018-02-07T15:31:37.435Z,6.97
2018-02-07T15:34:12.579Z,6.85
2018-02-07T15:36:48.849Z,6.73
2018-02-07T15:39:24.041Z,6.64
2018-02-07T15:41:59.114Z,6.55
2018-02-07T15:44:34.783Z,6.46
2018-02-07T15:47:09.802Z,6.37
2018-02-07T15:49:45.124Z,6.26
2018-02-07T15:52:21.613Z,6.17
2018-02-07T15:54:56.589Z,6.10
2018-02-07T15:57:31.637Z,5.98
2018-02-07T16:00:06.706Z,5.84
2018-02-07T16:02:40.853Z,5.74
2018-02-07T16:05:15.331Z,5.63
2018-02-07T16:07:50.062Z,5.54
2018-02-07T16:10:24.777Z,5.47
2018-02-07T16:13:00.069Z,5.37
2018-02-07T16:15:34.952Z,5.25
2018-02-07T16:18:09.715Z,5.14
2018-02-07T16:20:44.113Z,5.03
2018-02-07T16:23:18.848Z,4.95
2018-02-07T16:25:53.963Z,4.87
2018-02-07T16:28:28.629Z,4.79
2018-02-07T16:31:03.056Z,4.71
2018-02-07T16:33:37.802Z,4.56
2018-02-07T16:36:12.690Z,4.47
2018-02-07T16:38:49.054Z,4.35
2018-02-07T16:41:23.880Z,4.27
2018-02-07T16:43:59.109Z,4.20
2018-02-07T16:46:35.003Z,4.12
2018-02-07T16:49:09.814Z,4.05
2018-02-07T16:51:45.039Z,3.97
2018-02-07T16:54:20.234Z,3.91
2018-02-07T16:56:55.874Z,3.84
2018-02-07T16:59:30.897Z,3.73
2018-02-07T17:02:05.946Z,3.65
2018-02-07T17:04:41.043Z,3.58
2018-02-07T17:07:16.409Z,3.54
2018-02-07T17:09:51.206Z,3.45
2018-02-07T17:12:26.446Z,3.42
2018-02-07T17:15:01.921Z,3.37
2018-02-07T17:17:36.444Z,3.33
2018-02-07T17:20:11.875Z,3.26
2018-02-07T17:22:46.971Z,3.19
2018-02-07T17:25:21.937Z,3.17
2018-02-07T17:27:57.283Z,3.13
2018-02-07T17:30:32.143Z,3.10
2018-02-07T17:33:07.371Z,3.02
2018-02-07T17:35:42.986Z,2.91
2018-02-07T17:38:18.051Z,2.79
2018-02-07T17:40:53.330Z,2.76
2018-02-07T17:43:29.062Z,2.73
2018-02-07T17:46:04.357Z,2.69
2018-02-07T17:48:39.453Z,2.63
2018-02-07T17:51:14.556Z,2.58
2018-02-07T17:53:49.464Z,2.54
2018-02-07T17:56:24.904Z,2.49
2018-02-07T17:59:00.136Z,2.39
2018-02-07T18:01:35.408Z,2.44
2018-02-07T18:04:10.819Z,2.43
2018-02-07T18:06:45.590Z,2.40
2018-02-07T18:09:20.225Z,2.35
2018-02-07T18:11:55.377Z,2.29
2018-02-07T18:14:30.612Z,2.28
2018-02-07T18:17:06.422Z,2.24
2018-02-07T18:19:41.300Z,2.20
2018-02-07T18:22:16.494Z,2.21
2018-02-07T18:24:51.678Z,2.17
2018-02-07T18:27:26.402Z,2.14
2018-02-07T18:30:01.423Z,2.13
2018-02-07T18:32:36.681Z,2.11
2018-02-07T18:35:12.158Z,2.04
2018-02-07T18:37:47.276Z,1.99
2018-02-07T18:40:21.747Z,1.94
2018-02-07T18:42:57.227Z,1.91
2018-02-07T18:45:32.242Z,1.86
2018-02-07T18:48:07.613Z,1.79
2018-02-07T18:50:42.695Z,1.79
2018-02-07T18:53:17.799Z,1.78
2018-02-07T18:55:53.257Z,1.75
2018-02-07T18:58:28.379Z,1.76
2018-02-07T19:01:03.630Z,1.74
2018-02-07T19:03:39.143Z,1.70
2018-02-07T19:06:14.275Z,1.68
2018-02-07T19:08:49.658Z,1.64
2018-02-07T19:11:24.731Z,1.58
2018-02-07T19:13:59.431Z,1.57
2018-02-07T19:16:34.446Z,1.56
2018-02-07T19:19:09.587Z,1.52
2018-02-07T19:21:44.622Z,1.45
2018-02-07T19:24:20.258Z,1.49
2018-02-07T19:26:55.619Z,1.48
2018-02-07T19:29:30.834Z,1.45
2018-02-07T19:32:09.085Z,1.42
2018-02-07T19:34:43.670Z,1.37
2018-02-07T19:37:18.883Z,1.32
2018-02-07T19:39:54.573Z,1.27
2018-02-07T19:42:29.798Z,1.20
2018-02-07T19:45:05.090Z,1.15
2018-02-07T19:47:39.562Z,1.13
2018-02-07T19:50:14.786Z,1.12
2018-02-07T19:52:50.382Z,1.10
2018-02-07T19:55:25.601Z,1.07
2018-02-07T19:58:00.978Z,1.04
2018-02-07T20:00:35.951Z,1.00
2018-02-07T20:03:10.407Z,0.97
2018-02-07T20:05:44.997Z,0.93
2018-02-07T20:08:20.813Z,0.89
2018-02-07T20:10:55.834Z,0.86
2018-02-07T20:13:30.526Z,0.85
2018-02-07T20:16:05.430Z,0.82
2018-02-07T20:18:40.531Z,0.81
2018-02-07T20:21:15.513Z,0.80
2018-02-07T20:23:50.898Z,0.79
2018-02-07T20:26:26.132Z,0.75
2018-02-07T20:29:01.514Z,0.72
2018-02-07T20:31:36.673Z,0.68
2018-02-07T20:34:12.011Z,0.65
2018-02-07T20:36:47.596Z,0.53
2018-02-07T20:39:22.761Z,0.56
2018-02-07T20:41:57.903Z,0.53
2018-02-07T20:44:33.222Z,0.49
2018-02-07T20:47:08.073Z,0.43
2018-02-07T20:49:43.398Z,0.39
2018-02-07T20:52:18.033Z,0.35
2018-02-07T20:54:53.150Z,0.35
2018-02-07T20:57:28.322Z,0.33
2018-02-07T21:00:03.054Z,0.30
2018-02-07T21:02:38.137Z,0.21
2018-02-07T21:05:13.028Z,0.26
2018-02-07T21:07:47.978Z,0.24
2018-02-07T21:10:23.242Z,0.26
2018-02-07T21:12:58.074Z,0.26
2018-02-07T21:15:33.354Z,0.26
2018-02-07T21:18:08.898Z,0.24
2018-02-07T21:20:44.001Z,0.21
2018-02-07T21:23:19.198Z,0.18
2018-02-07T21:25:54.416Z,0.17
2018-02-07T21:28:29.722Z,0.14
2018-02-07T21:31:04.676Z,0.11
2018-02-07T21:33:40.019Z,0.09
2018-02-07T21:36:15.290Z,0.07
2018-02-07T21:38:50.722Z,0.04
2018-02-07T21:41:25.793Z,0.01
2018-02-07T21:44:00.759Z,-0.05
2018-02-07T21:46:35.279Z,-0.07
2018-02-07T21:49:10.182Z,-0.09
2018-02-07T21:51:45.078Z,-0.12
2018-02-07T21:54:19.510Z,-0.18
2018-02-07T21:56:54.030Z,-0.18
2018-02-07T21:59:29.182Z,-0.23
2018-02-07T22:02:04.510Z,-0.28
2018-02-07T22:04:39.542Z,-0.34
2018-02-07T22:07:14.066Z,-0.34
2018-02-07T22:09:49.309Z,-0.38
2018-02-07T22:12:23.921Z,-0.42
2018-02-07T22:14:59.259Z,-0.50
2018-02-07T22:17:33.838Z,-0.54
2018-02-07T22:20:08.475Z,-0.57
2018-02-07T22:22:43.189Z,-0.62
2018-02-07T22:25:18.502Z,-0.66
2018-02-07T22:27:52.969Z,-0.69
2018-02-07T22:30:27.830Z,-0.78
2018-02-07T22:33:02.906Z,-0.85
2018-02-07T22:35:38.233Z,-0.90
2018-02-07T22:38:12.830Z,-0.94
2018-02-07T22:40:47.801Z,-0.98
2018-02-07T22:43:23.244Z,-1.05
2018-02-07T22:45:58.322Z,-1.09
2018-02-07T22:48:32.990Z,-1.13
2018-02-07T22:51:08.234Z,-1.16
2018-02-07T22:53:43.254Z,-1.19
2018-02-07T22:56:18.562Z,-1.22
2018-02-07T22:58:52.936Z,-1.24
2018-02-07T23:01:27.376Z,-1.29
2018-02-07T23:04:02.582Z,-1.36
2018-02-07T23:06:37.343Z,-1.42
2018-02-07T23:09:12.272Z,-1.46
2018-02-07T23:11:47.249Z,-1.53
2018-02-07T23:14:22.350Z,-1.58
2018-02-07T23:16:57.633Z,-1.61
2018-02-07T23:19:32.659Z,-1.65
2018-02-07T23:22:07.013Z,-1.69
2018-02-07T23:24:41.982Z,-1.74
2018-02-07T23:27:16.427Z,-1.82
2018-02-07T23:29:51.090Z,-1.83
2018-02-07T23:32:25.529Z,-1.86
2018-02-07T23:35:00.793Z,-1.89
2018-02-07T23:37:35.738Z,-1.91
2018-02-07T23:40:10.455Z,-1.94
2018-02-07T23:42:45.728Z,-1.95
2018-02-07T23:45:20.566Z,-1.97
2018-02-07T23:47:55.273Z,-2.00
2018-02-07T23:50:30.239Z,-2.00
2018-02-07T23:53:04.717Z,-2.03
2018-02-07T23:55:39.322Z,-2.05
2018-02-07T23:58:13.985Z,-2.07
